Time;durP1;ratioP1;P1;durP2;ratioP2;P2;SDS_P1;SDS_P2;PMS_P1;PMS_P2;Temp;Humidity;BMP_temperature;BMP_pressure;BME280_temperature;BME280_humidity;BME280_pressure;Samples;Min_cycle;Max_cycle;Signal;HPM_P1;HPM_P2
2023/03/16 00:01:17;;;;;;;17.27;10.50;;;3.00;34.50;;;;;;5058233;28;20472;-70
2023/03/16 00:03:44;;;;;;;13.00;8.93;;;2.90;34.40;;;;;;5063200;28;20449;-70
2023/03/16 00:06:11;;;;;;;14.97;9.17;;;2.90;34.60;;;;;;5063110;28;20478;-70
2023/03/16 00:08:38;;;;;;;14.60;8.83;;;2.80;34.70;;;;;;5058641;28;20465;-70
2023/03/16 00:11:05;;;;;;;12.97;8.13;;;2.70;34.90;;;;;;5056506;28;20943;-69
2023/03/16 00:13:32;;;;;;;16.30;8.97;;;2.60;35.40;;;;;;5061660;28;20476;-69
2023/03/16 00:16:03;;;;;;;17.40;9.50;;;2.60;36.00;;;;;;5063716;28;20454;-69
2023/03/16 00:18:37;;;;;;;16.70;10.07;;;2.50;36.50;;;;;;5066358;28;20495;-69
2023/03/16 00:21:05;;;;;;;13.97;9.60;;;2.50;37.10;;;;;;5058481;28;21003;-69
2023/03/16 00:23:34;;;;;;;13.70;9.60;;;2.50;38.00;;;;;;5065366;28;20484;-69
2023/03/16 00:26:03;;;;;;;12.97;9.80;;;2.40;38.30;;;;;;5055421;28;20543;-69
2023/03/16 00:28:33;;;;;;;16.17;12.07;;;2.40;38.60;;;;;;5066586;28;20468;-69
2023/03/16 00:31:02;;;;;;;14.60;11.20;;;2.40;39.00;;;;;;5058850;28;20950;-69
2023/03/16 00:33:29;;;;;;;17.43;10.27;;;2.40;39.20;;;;;;5062783;28;20461;-69
2023/03/16 00:36:01;;;;;;;14.30;10.13;;;2.40;39.40;;;;;;5064307;28;20457;-70
2023/03/16 00:38:30;;;;;;;18.10;11.37;;;2.30;39.40;;;;;;5063352;28;20461;-70
2023/03/16 00:40:57;;;;;;;15.90;10.83;;;2.30;39.50;;;;;;5062985;28;20477;-70
2023/03/16 00:43:26;;;;;;;16.43;11.27;;;2.20;39.50;;;;;;5062589;28;20461;-70
2023/03/16 00:46:00;;;;;;;13.60;10.40;;;2.20;39.40;;;;;;5059374;28;20508;-69
2023/03/16 00:48:28;;;;;;;16.20;11.07;;;2.20;39.50;;;;;;5066301;28;20461;-70
2023/03/16 00:50:54;;;;;;;17.30;10.57;;;2.20;39.50;;;;;;5059179;28;21023;-69
2023/03/16 00:53:22;;;;;;;16.70;10.73;;;2.20;39.70;;;;;;5061831;28;20453;-70
2023/03/16 00:55:48;;;;;;;14.07;9.73;;;2.20;39.70;;;;;;5058558;28;20481;-69
2023/03/16 00:58:15;;;;;;;18.03;11.40;;;2.20;39.70;;;;;;5063226;28;20491;-70
2023/03/16 01:00:42;;;;;;;14.17;10.37;;;2.10;39.50;;;;;;5060048;28;21048;-69
2023/03/16 01:03:09;;;;;;;17.27;10.07;;;2.10;39.40;;;;;;5058885;28;20453;-69
2023/03/16 01:05:41;;;;;;;15.30;10.00;;;2.10;39.60;;;;;;5063027;28;20507;-70
2023/03/16 01:08:08;;;;;;;16.53;9.53;;;2.10;39.80;;;;;;5064528;28;20494;-70
2023/03/16 01:10:35;;;;;;;16.57;10.07;;;2.10;40.20;;;;;;5065210;28;20484;-70
2023/03/16 01:13:01;;;;;;;17.40;10.57;;;2.00;40.70;;;;;;5058192;28;20515;-69
2023/03/16 01:15:28;;;;;;;16.97;10.93;;;2.10;40.80;;;;;;5062341;28;20473;-69
2023/03/16 01:17:55;;;;;;;16.03;10.80;;;2.10;40.60;;;;;;5062340;28;20801;-69
2023/03/16 01:20:22;;;;;;;17.03;10.67;;;2.10;40.30;;;;;;5058764;28;20485;-69
2023/03/16 01:22:51;;;;;;;19.27;11.43;;;2.00;40.20;;;;;;5062646;28;20949;-69
2023/03/16 01:25:18;;;;;;;16.70;10.53;;;2.00;40.00;;;;;;5066484;28;20505;-69
2023/03/16 01:27:44;;;;;;;15.30;9.77;;;2.10;39.90;;;;;;5068190;28;20485;-69
2023/03/16 01:30:12;;;;;;;15.00;10.60;;;2.10;39.50;;;;;;5066274;28;20957;-69
2023/03/16 01:32:40;;;;;;;13.17;9.13;;;2.00;39.20;;;;;;5064822;28;20798;-69
2023/03/16 01:35:08;;;;;;;18.27;10.77;;;2.10;39.10;;;;;;5068063;28;21016;-69
2023/03/16 01:37:34;;;;;;;15.40;10.00;;;2.10;39.00;;;;;;5064797;28;20457;-69
2023/03/16 01:40:05;;;;;;;14.67;10.13;;;2.10;38.60;;;;;;5064937;28;20465;-70
2023/03/16 01:42:32;;;;;;;18.27;11.53;;;2.00;38.50;;;;;;5068448;28;20928;-70
2023/03/16 01:45:04;;;;;;;16.27;10.23;;;2.00;38.30;;;;;;5061956;28;20478;-69
2023/03/16 01:47:36;;;;;;;14.23;9.60;;;2.00;38.10;;;;;;5066029;28;20453;-69
2023/03/16 01:50:04;;;;;;;15.37;11.20;;;2.00;38.00;;;;;;5067402;28;20527;-69
2023/03/16 01:52:35;;;;;;;18.70;11.30;;;2.00;38.10;;;;;;5067467;28;20457;-69
2023/03/16 01:55:07;;;;;;;15.67;10.80;;;2.00;37.70;;;;;;5067359;28;20459;-69
2023/03/16 01:57:37;;;;;;;17.33;10.37;;;2.00;37.90;;;;;;5069297;28;20812;-70
2023/03/16 02:00:09;;;;;;;16.40;10.30;;;2.00;37.60;;;;;;5065751;28;20491;-69
2023/03/16 02:02:39;;;;;;;18.30;10.87;;;2.00;37.50;;;;;;5067362;28;20491;-69
2023/03/16 02:05:12;;;;;;;15.33;10.40;;;2.00;37.10;;;;;;5063332;28;20488;-69
2023/03/16 02:07:46;;;;;;;15.93;10.40;;;2.00;37.10;;;;;;5062272;28;20553;-70
2023/03/16 02:10:15;;;;;;;18.00;10.10;;;2.00;37.00;;;;;;5069347;28;20469;-70
2023/03/16 02:12:43;;;;;;;19.07;11.93;;;2.00;37.20;;;;;;5064888;28;20460;-70
2023/03/16 02:15:12;;;;;;;16.17;9.50;;;2.00;37.10;;;;;;5062219;28;20469;-70
2023/03/16 02:17:41;;;;;;;13.70;8.80;;;2.00;37.10;;;;;;5065186;28;20800;-70
2023/03/16 02:20:21;;;;;;;14.93;8.87;;;2.00;36.90;;;;;;5055922;28;20461;-70
2023/03/16 02:22:52;;;;;;;13.47;9.57;;;1.90;37.10;;;;;;5058410;28;20454;-69
2023/03/16 02:25:23;;;;;;;14.50;10.63;;;1.80;37.10;;;;;;5060058;28;20597;-69
2023/03/16 02:27:57;;;;;;;14.87;10.90;;;1.80;37.20;;;;;;5067463;28;20965;-69
2023/03/16 02:30:25;;;;;;;15.43;10.77;;;1.70;37.40;;;;;;5062816;28;20473;-69
2023/03/16 02:32:53;;;;;;;17.17;10.90;;;1.80;37.30;;;;;;5066356;28;21102;-69
2023/03/16 02:35:21;;;;;;;15.77;10.27;;;1.80;37.40;;;;;;5061253;28;20445;-70
2023/03/16 02:37:47;;;;;;;18.47;10.70;;;1.70;37.50;;;;;;5064342;28;20457;-69
2023/03/16 02:40:22;;;;;;;17.60;11.57;;;1.80;37.30;;;;;;5067888;28;20544;-69
2023/03/16 02:42:55;;;;;;;20.17;11.87;;;1.80;37.40;;;;;;5067338;28;20499;-70
2023/03/16 02:45:23;;;;;;;19.40;12.17;;;1.80;37.20;;;;;;5063216;28;20476;-70
2023/03/16 02:47:54;;;;;;;21.27;13.13;;;1.80;37.10;;;;;;5065802;28;20453;-69
2023/03/16 02:50:21;;;;;;;21.13;11.60;;;1.80;37.30;;;;;;5061380;28;20477;-69
2023/03/16 02:52:48;;;;;;;23.07;11.97;;;1.80;37.50;;;;;;5067799;28;20460;-70
2023/03/16 02:55:15;;;;;;;33.90;13.20;;;1.80;37.50;;;;;;5062513;28;20485;-70
2023/03/16 02:57:42;;;;;;;50.03;11.70;;;1.70;37.70;;;;;;5062102;28;21104;-69
2023/03/16 03:00:13;;;;;;;36.23;12.70;;;1.60;38.30;;;;;;5065890;28;20459;-70
2023/03/16 03:02:39;;;;;;;25.53;12.17;;;1.60;38.10;;;;;;5065946;28;20556;-70
2023/03/16 03:05:08;;;;;;;32.57;12.10;;;1.60;38.20;;;;;;5063816;28;20449;-70
2023/03/16 03:07:36;;;;;;;21.10;11.13;;;1.60;38.20;;;;;;5065028;28;20465;-69
2023/03/16 03:10:04;;;;;;;21.23;12.30;;;1.70;38.30;;;;;;5064112;28;20457;-70
2023/03/16 03:12:31;;;;;;;21.50;11.93;;;1.60;38.30;;;;;;5064179;28;20545;-70
2023/03/16 03:14:58;;;;;;;16.77;10.63;;;1.70;38.00;;;;;;5064192;28;21216;-70
2023/03/16 03:17:28;;;;;;;21.43;11.60;;;1.70;38.00;;;;;;5065330;28;20460;-70
2023/03/16 03:19:56;;;;;;;28.00;11.57;;;1.70;37.80;;;;;;5064641;28;20483;-70
2023/03/16 03:22:25;;;;;;;16.70;10.40;;;1.70;37.80;;;;;;5060823;28;21118;-70
2023/03/16 03:24:52;;;;;;;32.37;11.40;;;1.70;37.60;;;;;;5059856;28;21056;-70
2023/03/16 03:27:19;;;;;;;28.47;11.57;;;1.70;37.50;;;;;;5063139;28;20477;-70
2023/03/16 03:29:45;;;;;;;24.40;10.77;;;1.70;37.30;;;;;;5070109;28;20470;-70
2023/03/16 03:32:12;;;;;;;30.67;10.87;;;1.60;37.10;;;;;;5061645;28;20490;-70
2023/03/16 03:34:41;;;;;;;16.43;10.67;;;1.60;37.10;;;;;;5066209;28;20522;-70
2023/03/16 03:37:08;;;;;;;13.90;8.80;;;1.60;37.00;;;;;;5066975;28;20519;-70
2023/03/16 03:39:38;;;;;;;16.10;10.90;;;1.60;37.10;;;;;;5064284;28;20492;-70
2023/03/16 03:42:05;;;;;;;16.03;11.30;;;1.60;37.00;;;;;;5062852;28;20473;-70
2023/03/16 03:44:33;;;;;;;18.10;11.43;;;1.60;36.90;;;;;;5066394;28;20457;-70
2023/03/16 03:47:00;;;;;;;30.93;11.07;;;1.60;36.90;;;;;;5059205;28;20477;-70
2023/03/16 03:49:27;;;;;;;22.63;11.83;;;1.60;37.00;;;;;;5057887;28;20465;-70
2023/03/16 03:51:54;;;;;;;18.00;11.83;;;1.60;37.00;;;;;;5064927;28;20477;-70
2023/03/16 03:54:21;;;;;;;20.03;10.77;;;1.60;36.80;;;;;;5061032;28;20464;-70
2023/03/16 03:56:49;;;;;;;23.43;10.37;;;1.60;36.70;;;;;;5063198;28;20484;-70
2023/03/16 03:59:16;;;;;;;14.33;9.27;;;1.60;36.70;;;;;;5067581;28;20457;-70
2023/03/16 04:01:42;;;;;;;25.23;10.80;;;1.60;36.60;;;;;;5063790;28;21102;-70
2023/03/16 04:04:09;;;;;;;17.23;9.20;;;1.60;36.50;;;;;;5064054;28;20852;-70
2023/03/16 04:06:36;;;;;;;24.30;9.97;;;1.60;36.40;;;;;;5065519;28;20488;-70
2023/03/16 04:09:04;;;;;;;23.93;11.03;;;1.50;36.40;;;;;;5060042;28;20494;-70
2023/03/16 04:11:31;;;;;;;23.23;10.03;;;1.50;36.60;;;;;;5069564;28;20484;-69
2023/03/16 04:13:59;;;;;;;22.57;11.00;;;1.50;36.50;;;;;;5062382;28;20455;-70
2023/03/16 04:16:25;;;;;;;18.30;11.40;;;1.50;36.50;;;;;;5063458;28;20453;-70
2023/03/16 04:18:53;;;;;;;20.33;11.20;;;1.50;36.50;;;;;;5061038;28;21512;-70
2023/03/16 04:21:20;;;;;;;21.33;11.20;;;1.50;36.50;;;;;;5063847;28;20523;-70
2023/03/16 04:23:47;;;;;;;36.20;11.37;;;1.50;36.40;;;;;;5063466;28;20539;-70
2023/03/16 04:26:15;;;;;;;30.57;12.30;;;1.60;36.40;;;;;;5065060;28;20477;-69
2023/03/16 04:28:42;;;;;;;33.20;12.50;;;1.50;36.70;;;;;;5062035;28;20473;-69
2023/03/16 04:31:10;;;;;;;29.23;12.03;;;1.50;36.70;;;;;;5062118;28;20961;-69
2023/03/16 04:33:38;;;;;;;17.50;10.37;;;1.50;36.90;;;;;;5064730;28;20472;-69
2023/03/16 04:36:07;;;;;;;24.53;11.13;;;1.50;36.90;;;;;;5061295;28;20457;-69
2023/03/16 04:38:35;;;;;;;17.37;11.03;;;1.50;37.00;;;;;;5065654;28;20543;-69
2023/03/16 04:41:02;;;;;;;28.60;10.50;;;1.50;36.90;;;;;;5054667;28;20576;-69
2023/03/16 04:43:33;;;;;;;31.33;10.67;;;1.40;37.00;;;;;;5065648;28;20468;-70
2023/03/16 04:46:00;;;;;;;18.70;10.30;;;1.40;36.90;;;;;;5058473;28;20520;-68
2023/03/16 04:48:28;;;;;;;26.50;9.47;;;1.40;37.00;;;;;;5062940;28;20461;-70
2023/03/16 04:50:55;;;;;;;17.30;10.10;;;1.40;37.00;;;;;;5064283;28;20473;-70
2023/03/16 04:53:22;;;;;;;20.73;10.67;;;1.40;37.10;;;;;;5062766;28;20498;-70
2023/03/16 04:55:48;;;;;;;19.00;11.10;;;1.40;37.00;;;;;;5059138;28;20993;-69
2023/03/16 04:58:15;;;;;;;19.77;10.37;;;1.40;37.10;;;;;;5065591;28;20988;-69
2023/03/16 05:00:42;;;;;;;17.13;9.87;;;1.30;37.30;;;;;;5062495;28;20488;-70
2023/03/16 05:03:10;;;;;;;19.63;11.57;;;1.40;37.40;;;;;;5064056;28;20484;-70
2023/03/16 05:05:38;;;;;;;16.40;10.47;;;1.40;37.20;;;;;;5064039;28;20457;-69
2023/03/16 05:08:05;;;;;;;19.23;10.00;;;1.40;37.20;;;;;;5056810;28;20519;-69
2023/03/16 05:10:33;;;;;;;28.73;12.03;;;1.40;37.20;;;;;;5053560;28;20618;-69
2023/03/16 05:13:00;;;;;;;16.97;10.93;;;1.40;37.10;;;;;;5059384;28;20461;-70
2023/03/16 05:15:27;;;;;;;17.20;10.47;;;1.40;37.00;;;;;;5058300;28;20472;-70
2023/03/16 05:17:55;;;;;;;30.10;11.13;;;1.40;37.20;;;;;;5061405;28;20451;-70
2023/03/16 05:20:22;;;;;;;16.50;10.23;;;1.30;37.20;;;;;;5059157;28;20516;-70
2023/03/16 05:22:51;;;;;;;18.87;11.30;;;1.30;37.70;;;;;;5060021;28;20494;-70
2023/03/16 05:25:19;;;;;;;18.13;10.33;;;1.40;37.10;;;;;;5060916;28;20465;-70
2023/03/16 05:27:49;;;;;;;16.73;11.07;;;1.40;37.70;;;;;;5063691;28;20846;-70
2023/03/16 05:30:17;;;;;;;24.50;12.03;;;1.30;37.10;;;;;;5064361;28;20469;-70
2023/03/16 05:32:44;;;;;;;30.77;12.20;;;1.40;37.10;;;;;;5060805;28;20475;-69
2023/03/16 05:35:12;;;;;;;30.57;11.13;;;1.40;37.00;;;;;;5058481;28;20465;-71
2023/03/16 05:37:39;;;;;;;19.93;11.37;;;1.40;37.00;;;;;;5051795;28;20461;-70
2023/03/16 05:40:15;;;;;;;18.17;10.63;;;1.40;37.00;;;;;;5053241;28;20983;-71
2023/03/16 05:42:43;;;;;;;25.43;13.63;;;1.40;37.10;;;;;;5055338;28;20460;-69
2023/03/16 05:45:10;;;;;;;21.20;12.40;;;1.40;37.00;;;;;;5054466;28;20461;-68
2023/03/16 05:47:37;;;;;;;21.57;13.20;;;1.40;37.10;;;;;;5055454;28;20495;-70
2023/03/16 05:50:04;;;;;;;37.13;13.53;;;1.50;37.00;;;;;;5051942;28;20566;-68
2023/03/16 05:52:32;;;;;;;18.80;12.50;;;1.50;37.70;;;;;;5058136;28;20468;-68
2023/03/16 05:54:59;;;;;;;17.90;11.37;;;1.50;37.00;;;;;;5052136;28;20899;-69
2023/03/16 05:57:27;;;;;;;27.23;11.90;;;1.50;37.00;;;;;;5058660;28;20453;-67
2023/03/16 05:59:54;;;;;;;35.43;12.53;;;1.60;36.80;;;;;;5060467;28;20454;-68
2023/03/16 06:02:21;;;;;;;22.37;11.73;;;1.60;36.90;;;;;;5060626;28;20984;-68
2023/03/16 06:04:48;;;;;;;17.80;11.83;;;1.60;36.70;;;;;;5054301;28;20470;-68
2023/03/16 06:07:15;;;;;;;20.70;11.27;;;1.60;36.80;;;;;;5059424;28;20525;-70
2023/03/16 06:09:41;;;;;;;18.87;9.87;;;1.70;36.80;;;;;;5054099;28;20464;-67
2023/03/16 06:12:08;;;;;;;18.53;10.90;;;1.70;36.80;;;;;;5062270;28;20878;-67
2023/03/16 06:14:36;;;;;;;20.10;11.90;;;1.70;36.70;;;;;;5063363;28;20522;-66
2023/03/16 06:17:03;;;;;;;19.70;11.53;;;1.80;36.60;;;;;;5063040;28;20916;-68
2023/03/16 06:19:30;;;;;;;18.00;10.60;;;1.90;36.70;;;;;;5063121;28;20465;-69
2023/03/16 06:21:57;;;;;;;15.40;10.63;;;2.00;36.40;;;;;;5061372;28;20480;-67
2023/03/16 06:24:24;;;;;;;21.40;10.93;;;2.00;36.30;;;;;;5061510;28;20957;-70
2023/03/16 06:26:50;;;;;;;17.30;10.30;;;2.10;36.90;;;;;;5063743;28;20949;-68
2023/03/16 06:29:17;;;;;;;57.63;10.67;;;2.20;36.10;;;;;;5064767;28;20460;-68
2023/03/16 06:31:45;;;;;;;14.90;10.30;;;2.40;35.90;;;;;;5066954;28;20492;-65
2023/03/16 06:34:12;;;;;;;17.43;10.00;;;2.50;35.80;;;;;;5061903;28;20472;-66
2023/03/16 06:36:38;;;;;;;21.10;10.83;;;2.60;35.50;;;;;;5067264;28;20461;-61
2023/03/16 06:39:05;;;;;;;15.80;10.53;;;2.70;35.40;;;;;;5063569;28;20457;-64
2023/03/16 06:41:34;;;;;;;22.50;10.80;;;2.70;35.20;;;;;;5062635;28;20496;-64
2023/03/16 06:44:01;;;;;;;38.47;11.03;;;2.90;35.00;;;;;;5057728;28;20462;-66
2023/03/16 06:46:28;;;;;;;15.67;9.77;;;2.90;34.70;;;;;;5057798;28;20453;-63
2023/03/16 06:48:56;;;;;;;15.87;10.20;;;3.00;34.50;;;;;;5063946;28;20460;-68
2023/03/16 06:51:22;;;;;;;15.80;10.57;;;3.10;34.40;;;;;;5062104;28;20485;-62
2023/03/16 06:53:49;;;;;;;18.33;10.97;;;3.20;34.00;;;;;;5055537;28;20471;-63
2023/03/16 06:56:16;;;;;;;14.17;9.13;;;3.40;33.80;;;;;;5066409;28;20468;-64
2023/03/16 06:58:43;;;;;;;15.90;10.33;;;3.60;33.50;;;;;;5065369;28;20453;-66
2023/03/16 07:01:11;;;;;;;19.50;11.40;;;3.80;33.10;;;;;;5066364;28;20552;-65
2023/03/16 07:03:38;;;;;;;18.93;10.60;;;3.90;32.80;;;;;;5063947;28;20550;-62
2023/03/16 07:06:07;;;;;;;17.03;10.50;;;3.90;32.10;;;;;;5064923;28;20457;-61
2023/03/16 07:08:34;;;;;;;14.30;9.33;;;4.10;31.90;;;;;;5057187;28;20485;-63
2023/03/16 07:11:01;;;;;;;18.67;10.73;;;4.20;31.40;;;;;;5064488;28;20492;-62
2023/03/16 07:13:27;;;;;;;13.33;10.03;;;4.30;31.10;;;;;;5058598;28;20493;-61
2023/03/16 07:15:54;;;;;;;15.20;10.00;;;4.50;30.70;;;;;;5061747;28;20468;-64
2023/03/16 07:18:21;;;;;;;15.10;9.87;;;4.70;30.40;;;;;;5061184;28;20457;-66
2023/03/16 07:20:48;;;;;;;12.73;9.43;;;4.90;29.80;;;;;;5061571;28;21280;-60
2023/03/16 07:23:16;;;;;;;17.47;10.17;;;5.00;29.40;;;;;;5059389;28;20468;-70
2023/03/16 07:25:43;;;;;;;16.50;8.97;;;5.30;29.20;;;;;;5060838;28;20476;-67
2023/03/16 07:28:10;;;;;;;17.93;10.00;;;5.50;28.40;;;;;;5062014;28;20492;-68
2023/03/16 07:30:37;;;;;;;14.10;9.60;;;5.60;27.70;;;;;;5065831;28;20508;-68
2023/03/16 07:33:04;;;;;;;16.20;10.33;;;5.80;27.10;;;;;;5059512;28;20462;-69
2023/03/16 07:35:31;;;;;;;18.33;9.87;;;5.90;26.70;;;;;;5063518;28;20457;-69
2023/03/16 07:37:58;;;;;;;14.03;9.50;;;6.00;26.30;;;;;;5068406;28;20460;-68
2023/03/16 07:40:26;;;;;;;19.73;9.77;;;6.00;25.80;;;;;;5064919;28;20477;-65
2023/03/16 07:42:52;;;;;;;14.97;9.60;;;5.90;25.50;;;;;;5057362;28;20469;-67
2023/03/16 07:45:20;;;;;;;13.27;10.40;;;5.90;25.50;;;;;;5061353;28;20450;-67
2023/03/16 07:47:47;;;;;;;14.13;9.70;;;5.90;25.10;;;;;;5057310;28;20569;-69
2023/03/16 07:50:18;;;;;;;12.97;9.00;;;5.90;25.20;;;;;;5066143;28;20480;-66
2023/03/16 07:52:45;;;;;;;14.03;10.07;;;5.90;24.90;;;;;;5061017;28;20541;-66
2023/03/16 07:55:12;;;;;;;15.97;10.30;;;6.10;25.10;;;;;;5063973;28;20453;-66
2023/03/16 07:57:41;;;;;;;13.70;9.70;;;6.20;24.60;;;;;;5062654;28;20457;-69
2023/03/16 08:00:09;;;;;;;16.00;9.33;;;6.30;24.80;;;;;;5057784;28;20483;-68
2023/03/16 08:02:36;;;;;;;14.00;10.10;;;6.40;24.50;;;;;;5055757;28;20477;-67
2023/03/16 08:05:02;;;;;;;16.50;10.23;;;6.60;24.10;;;;;;5057665;28;20471;-68
2023/03/16 08:07:30;;;;;;;14.93;9.47;;;6.70;24.10;;;;;;5060347;28;20488;-67
2023/03/16 08:09:57;;;;;;;13.40;9.33;;;6.90;23.70;;;;;;5062606;28;20870;-69
2023/03/16 08:12:24;;;;;;;15.00;10.00;;;7.10;23.20;;;;;;5058137;28;20496;-68
2023/03/16 08:14:53;;;;;;;14.10;9.90;;;7.40;22.90;;;;;;5060276;28;20457;-68
2023/03/16 08:17:20;;;;;;;15.20;9.40;;;7.80;21.90;;;;;;5057726;28;20457;-68
2023/03/16 08:19:47;;;;;;;13.23;9.90;;;8.00;21.40;;;;;;5054489;28;21010;-69
2023/03/16 08:22:13;;;;;;;13.97;9.47;;;8.10;20.90;;;;;;5058260;28;20485;-68
2023/03/16 08:24:41;;;;;;;18.13;11.00;;;8.20;20.20;;;;;;5059865;28;20469;-67
2023/03/16 08:27:08;;;;;;;13.57;9.30;;;8.30;20.00;;;;;;5059420;28;20861;-68
2023/03/16 08:29:34;;;;;;;14.73;11.03;;;8.30;19.80;;;;;;5059283;28;20464;-66
2023/03/16 08:32:02;;;;;;;13.40;10.10;;;8.50;19.90;;;;;;5059164;28;20954;-65
2023/03/16 08:34:30;;;;;;;13.93;10.10;;;8.60;19.40;;;;;;5063395;28;20465;-66
2023/03/16 08:36:58;;;;;;;14.90;11.30;;;8.80;19.70;;;;;;5060875;28;21000;-66
2023/03/16 08:39:24;;;;;;;14.77;10.13;;;9.40;19.20;;;;;;5062740;28;20487;-66
2023/03/16 08:41:52;;;;;;;14.60;9.87;;;10.20;18.50;;;;;;5057400;28;20996;-67
2023/03/16 08:44:20;;;;;;;15.23;10.13;;;11.20;16.40;;;;;;5058791;28;20458;-63
2023/03/16 08:46:47;;;;;;;13.27;9.20;;;11.70;15.20;;;;;;5062043;28;20496;-65
2023/03/16 08:49:16;;;;;;;15.37;10.97;;;11.90;14.30;;;;;;5059042;28;20488;-66
2023/03/16 08:51:42;;;;;;;14.47;9.80;;;12.10;13.70;;;;;;5061493;28;20561;-68
2023/03/16 08:54:09;;;;;;;13.53;10.03;;;12.50;13.10;;;;;;5061917;28;21003;-65
2023/03/16 08:56:36;;;;;;;12.13;9.40;;;12.80;12.70;;;;;;5063888;28;20465;-67
2023/03/16 08:59:03;;;;;;;14.47;10.57;;;12.90;11.70;;;;;;5055159;28;20973;-68
2023/03/16 09:01:30;;;;;;;13.13;10.00;;;13.10;11.60;;;;;;5056067;28;20486;-67
2023/03/16 09:03:57;;;;;;;12.40;10.27;;;13.10;11.30;;;;;;5060589;28;20983;-68
2023/03/16 09:06:26;;;;;;;13.97;10.23;;;13.10;11.20;;;;;;5057062;28;20465;-68
2023/03/16 09:08:54;;;;;;;13.63;10.57;;;13.10;11.10;;;;;;5055196;28;20862;-70
2023/03/16 09:11:22;;;;;;;14.53;10.70;;;13.30;11.20;;;;;;5054229;28;20964;-70
2023/03/16 09:13:50;;;;;;;12.87;10.60;;;13.30;11.10;;;;;;5056319;28;20965;-71
2023/03/16 09:16:16;;;;;;;12.73;9.97;;;13.60;10.80;;;;;;5061244;28;20565;-71
2023/03/16 09:18:44;;;;;;;14.20;10.80;;;13.70;10.30;;;;;;5058481;28;21014;-71
2023/03/16 09:21:12;;;;;;;13.10;9.60;;;13.90;10.40;;;;;;5062708;28;20870;-71
2023/03/16 09:23:41;;;;;;;15.03;10.47;;;14.80;9.40;;;;;;5056102;28;20461;-68
2023/03/16 09:26:08;;;;;;;13.47;11.10;;;15.10;8.10;;;;;;5057117;28;20988;-68
2023/03/16 09:28:37;;;;;;;12.87;9.47;;;15.60;8.00;;;;;;5047134;28;20610;-77
2023/03/16 09:31:05;;;;;;;14.07;10.53;;;15.90;7.10;;;;;;5052101;28;20491;-68
2023/03/16 09:33:32;;;;;;;13.27;10.93;;;16.50;5.80;;;;;;5052540;28;20461;-66
2023/03/16 09:36:00;;;;;;;15.43;11.17;;;16.90;5.30;;;;;;5057062;28;20480;-69
2023/03/16 09:38:27;;;;;;;11.17;9.50;;;18.40;4.30;;;;;;5058559;28;22739;-67
2023/03/16 09:41:00;;;;;;;11.60;10.37;;;19.20;1.60;;;;;;5064393;28;20480;-69
2023/03/16 09:43:39;;;;;;;12.97;10.60;;;19.40;1.20;;;;;;5065342;28;20883;-69
2023/03/16 09:46:11;;;;;;;13.20;10.80;;;19.70;1.00;;;;;;5059598;28;20483;-67
2023/03/16 09:48:39;;;;;;;11.40;10.10;;;19.90;1.00;;;;;;5060368;28;20484;-64
2023/03/16 09:51:13;;;;;;;12.03;10.43;;;19.90;1.00;;;;;;5061553;28;21221;-65
2023/03/16 09:53:40;;;;;;;12.13;10.20;;;19.60;1.00;;;;;;5064124;28;20457;-62
2023/03/16 09:56:14;;;;;;;13.90;10.60;;;19.30;1.00;;;;;;5066466;28;20465;-63
2023/03/16 09:58:41;;;;;;;11.83;10.33;;;19.30;1.00;;;;;;5062645;28;20954;-67
2023/03/16 10:01:15;;;;;;;12.93;11.30;;;19.10;1.00;;;;;;5062139;28;20901;-67
2023/03/16 10:04:01;;;;;;;12.37;9.80;;;19.50;1.40;;;;;;5062924;28;20464;-66
2023/03/16 10:06:30;;;;;;;13.63;11.57;;;21.70;1.00;;;;;;5062202;28;20459;-68
2023/03/16 10:09:06;;;;;;;11.97;10.70;;;23.90;1.00;;;;;;5057344;28;20509;-67
2023/03/16 10:11:40;;;;;;;11.93;10.60;;;26.00;1.00;;;;;;5054060;28;20491;-69
2023/03/16 10:14:16;;;;;;;12.20;10.80;;;27.60;1.00;;;;;;5057089;28;20454;-68
2023/03/16 10:16:47;;;;;;;10.83;9.33;;;29.10;1.00;;;;;;5060496;28;20456;-68
2023/03/16 10:19:19;;;;;;;11.33;10.13;;;30.10;1.00;;;;;;5060010;28;20977;-69
2023/03/16 10:21:48;;;;;;;11.60;9.47;;;31.10;1.00;;;;;;5069977;28;20503;-69
2023/03/16 10:24:24;;;;;;;10.60;9.30;;;31.80;1.00;;;;;;5065517;28;20840;-69
2023/03/16 10:26:58;;;;;;;11.03;9.23;;;32.30;1.00;;;;;;5061080;28;20558;-69
2023/03/16 10:29:26;;;;;;;13.53;10.13;;;32.90;1.00;;;;;;5062041;28;21454;-69
2023/03/16 10:31:54;;;;;;;11.70;10.10;;;33.50;1.00;;;;;;5057903;28;20588;-68
2023/03/16 10:34:22;;;;;;;11.40;9.60;;;33.00;1.00;;;;;;5055255;28;20462;-75
2023/03/16 10:36:50;;;;;;;11.10;9.90;;;32.00;1.00;;;;;;5062336;28;20875;-61
2023/03/16 10:39:17;;;;;;;11.90;9.53;;;31.00;1.00;;;;;;5065264;28;20875;-68
2023/03/16 10:41:45;;;;;;;9.13;8.20;;;30.10;1.00;;;;;;5062694;28;20534;-68
2023/03/16 10:44:15;;;;;;;10.07;7.80;;;29.40;1.00;;;;;;5062389;28;20458;-69
2023/03/16 10:46:46;;;;;;;9.67;7.73;;;28.90;1.00;;;;;;5062699;28;20461;-69
2023/03/16 10:49:26;;;;;;;7.93;4.70;;;27.90;1.00;;;;;;5065139;28;20465;-71
2023/03/16 10:51:54;;;;;;;6.73;3.73;;;26.30;1.00;;;;;;5059471;28;20510;-70
2023/03/16 10:54:29;;;;;;;7.50;4.73;;;25.50;1.00;;;;;;5061355;28;20500;-70
2023/03/16 10:56:56;;;;;;;6.17;3.80;;;25.30;1.00;;;;;;5055636;28;20519;-69
2023/03/16 10:59:33;;;;;;;5.60;3.47;;;24.70;1.00;;;;;;5059817;28;21131;-69
2023/03/16 11:02:15;;;;;;;6.93;3.40;;;23.90;1.00;;;;;;5059985;28;20474;-70
2023/03/16 11:04:42;;;;;;;8.37;4.20;;;23.20;1.00;;;;;;5063968;28;20472;-70
2023/03/16 11:07:15;;;;;;;6.03;3.03;;;22.90;1.00;;;;;;5062861;28;20819;-70
2023/03/16 11:09:43;;;;;;;5.60;3.20;;;22.20;1.00;;;;;;5059858;28;20961;-67
2023/03/16 11:12:16;;;;;;;6.13;3.47;;;21.60;1.00;;;;;;5059153;28;20559;-69
2023/03/16 11:14:47;;;;;;;7.27;3.40;;;21.30;1.00;;;;;;5059937;28;20453;-67
2023/03/16 11:17:19;;;;;;;5.30;3.10;;;20.50;1.00;;;;;;5057305;28;20470;-69
2023/03/16 11:19:52;;;;;;;8.13;3.47;;;19.70;1.00;;;;;;5061911;28;20545;-66
2023/03/16 11:22:22;;;;;;;6.77;2.73;;;19.10;1.00;;;;;;5064751;28;20473;-70
2023/03/16 11:24:52;;;;;;;6.40;3.03;;;18.60;1.00;;;;;;5067213;28;20454;-69
2023/03/16 11:27:23;;;;;;;5.60;3.47;;;18.00;1.00;;;;;;5057609;28;20472;-68
2023/03/16 11:30:03;;;;;;;8.67;3.93;;;17.30;1.00;;;;;;5062859;28;20477;-68
2023/03/16 11:32:34;;;;;;;6.40;3.33;;;16.60;1.00;;;;;;5060610;28;20472;-67
2023/03/16 11:35:03;;;;;;;7.67;3.47;;;16.10;1.00;;;;;;5064840;28;21004;-67
2023/03/16 11:37:40;;;;;;;6.07;3.10;;;15.60;1.00;;;;;;5060992;28;20453;-65
2023/03/16 11:40:17;;;;;;;6.63;2.83;;;15.20;1.00;;;;;;5067625;28;20966;-70
2023/03/16 11:42:54;;;;;;;7.70;3.10;;;14.90;1.00;;;;;;5065939;28;20463;-65
2023/03/16 11:45:34;;;;;;;8.43;3.60;;;14.70;1.00;;;;;;5062440;28;20471;-70
2023/03/16 11:48:17;;;;;;;7.10;3.53;;;14.70;1.00;;;;;;5060025;28;20469;-69
2023/03/16 11:50:53;;;;;;;7.77;3.37;;;14.90;1.00;;;;;;5060939;28;20510;-67
2023/03/16 11:53:32;;;;;;;5.70;3.17;;;14.90;1.00;;;;;;5058717;28;20464;-67
2023/03/16 11:56:09;;;;;;;6.70;3.27;;;15.00;1.00;;;;;;5057356;28;20568;-65
2023/03/16 11:58:47;;;;;;;6.93;3.13;;;15.40;1.00;;;;;;5057915;28;20454;-62
2023/03/16 12:01:24;;;;;;;6.20;3.23;;;15.40;1.00;;;;;;5058550;28;20482;-64
2023/03/16 12:04:00;;;;;;;5.27;2.73;;;15.30;1.00;;;;;;5062859;28;20456;-63
2023/03/16 12:06:44;;;;;;;7.10;3.50;;;15.30;1.00;;;;;;5062877;28;20461;-65
2023/03/16 12:09:46;;;;;;;6.70;2.90;;;15.30;1.00;;;;;;5062606;28;20473;-65
2023/03/16 12:12:27;;;;;;;5.37;3.10;;;15.60;1.00;;;;;;5044618;28;20954;-63
2023/03/16 12:15:08;;;;;;;5.53;2.50;;;15.80;1.00;;;;;;5061819;28;21024;-65
2023/03/16 12:17:37;;;;;;;7.10;3.07;;;16.00;1.00;;;;;;5057149;28;20551;-64
2023/03/16 12:20:13;;;;;;;7.40;3.03;;;15.50;1.00;;;;;;5061988;28;20500;-63
2023/03/16 12:22:43;;;;;;;7.60;3.30;;;14.90;1.00;;;;;;5057824;28;20526;-63
2023/03/16 12:25:18;;;;;;;5.40;2.60;;;14.50;1.00;;;;;;5057031;28;21075;-63
2023/03/16 12:27:47;;;;;;;6.40;3.20;;;14.30;1.00;;;;;;5062441;28;20460;-63
2023/03/16 12:30:29;;;;;;;7.23;3.10;;;14.10;1.00;;;;;;5057411;28;20485;-64
2023/03/16 12:33:04;;;;;;;6.23;3.47;;;13.90;1.00;;;;;;5063188;28;20985;-64
2023/03/16 12:35:41;;;;;;;5.77;3.20;;;13.60;1.00;;;;;;5060920;28;20515;-62
2023/03/16 12:38:25;;;;;;;7.60;2.73;;;13.60;1.60;;;;;;5062027;28;20483;-62
2023/03/16 12:41:03;;;;;;;5.93;2.80;;;13.50;2.50;;;;;;5055201;28;21129;-62
2023/03/16 12:43:45;;;;;;;5.27;2.77;;;13.40;2.00;;;;;;5059781;28;20488;-62
2023/03/16 12:46:15;;;;;;;5.80;3.17;;;13.40;2.00;;;;;;5060871;28;20465;-62
2023/03/16 12:48:46;;;;;;;6.70;2.80;;;13.40;2.60;;;;;;5063814;28;20480;-62
2023/03/16 12:51:13;;;;;;;5.33;2.83;;;13.50;2.60;;;;;;5058371;28;20861;-67